createdAt,value
2023-01-29T00:02:02.952Z,18.66
2023-01-29T00:04:29.357Z,18.47
2023-01-29T00:06:55.730Z,18.15
2023-01-29T00:09:22.070Z,18.65
2023-01-29T00:11:48.445Z,18.96
2023-01-29T00:14:14.840Z,19.12
2023-01-29T00:16:41.310Z,19.49
2023-01-29T00:19:07.735Z,18.55
2023-01-29T00:21:34.089Z,18.51
2023-01-29T00:24:00.554Z,18.53
2023-01-29T00:26:26.957Z,18.64
2023-01-29T00:28:53.295Z,18.44
2023-01-29T00:31:19.772Z,18.60
2023-01-29T00:33:46.195Z,18.65
2023-01-29T00:36:12.592Z,18.63
2023-01-29T00:38:38.944Z,18.64
2023-01-29T00:41:05.291Z,18.97
2023-01-29T00:43:31.703Z,19.10
2023-01-29T00:45:58.097Z,19.62
2023-01-29T00:48:24.485Z,18.58
2023-01-29T00:50:50.872Z,19.03
2023-01-29T00:53:17.264Z,18.82
2023-01-29T00:55:43.621Z,18.99
2023-01-29T00:58:09.958Z,19.39
2023-01-29T01:00:36.315Z,19.09
2023-01-29T01:03:02.694Z,19.38
2023-01-29T01:05:29.074Z,18.96
2023-01-29T01:07:55.465Z,19.10
2023-01-29T01:10:21.885Z,18.76
2023-01-29T01:12:48.301Z,19.13
2023-01-29T01:15:14.663Z,19.24
2023-01-29T01:17:41.049Z,19.44
2023-01-29T01:20:07.446Z,19.76
2023-01-29T01:22:33.827Z,19.66
2023-01-29T01:25:00.207Z,19.15
2023-01-29T01:27:26.565Z,20.08
2023-01-29T01:29:52.971Z,19.82
2023-01-29T01:32:19.318Z,20.83
2023-01-29T01:34:45.655Z,20.08
2023-01-29T01:37:12.000Z,19.64
2023-01-29T01:39:38.358Z,19.60
2023-01-29T01:42:04.755Z,19.68
2023-01-29T01:44:31.175Z,19.59
2023-01-29T01:46:57.517Z,19.32
2023-01-29T01:49:23.907Z,19.74
2023-01-29T01:51:50.299Z,20.44
2023-01-29T01:54:16.665Z,19.70
2023-01-29T01:56:43.025Z,19.53
2023-01-29T01:59:09.385Z,19.96
2023-01-29T02:01:35.737Z,20.24
2023-01-29T02:04:02.135Z,19.41
2023-01-29T02:06:28.517Z,19.47
2023-01-29T02:08:54.902Z,19.72
2023-01-29T02:11:21.266Z,18.98
2023-01-29T02:13:47.761Z,19.24
2023-01-29T02:16:14.124Z,19.55
2023-01-29T02:18:40.508Z,19.23
2023-01-29T02:21:06.850Z,19.33
2023-01-29T02:23:33.236Z,19.74
2023-01-29T02:25:59.633Z,19.08
2023-01-29T02:28:25.989Z,18.88
2023-01-29T02:30:52.422Z,18.59
2023-01-29T02:33:18.810Z,18.25
2023-01-29T02:35:45.189Z,18.22
2023-01-29T02:38:11.550Z,18.00
2023-01-29T02:40:37.890Z,18.34
2023-01-29T02:43:04.235Z,17.82
2023-01-29T02:45:30.716Z,17.80
2023-01-29T02:47:57.110Z,17.74
2023-01-29T02:50:23.503Z,18.06
2023-01-29T02:52:49.897Z,17.91
2023-01-29T02:55:16.261Z,17.98
2023-01-29T02:57:42.631Z,17.82
2023-01-29T03:00:09.034Z,17.46
2023-01-29T03:02:35.417Z,17.54
2023-01-29T03:05:01.782Z,17.50
2023-01-29T03:07:28.158Z,17.62
2023-01-29T03:09:54.555Z,17.33
2023-01-29T03:12:20.947Z,17.42
2023-01-29T03:14:47.379Z,17.04
2023-01-29T03:17:13.781Z,16.56
2023-01-29T03:19:40.139Z,16.42
2023-01-29T03:22:06.501Z,16.43
2023-01-29T03:24:32.888Z,16.45
2023-01-29T03:26:59.287Z,16.68
2023-01-29T03:29:25.642Z,16.07
2023-01-29T03:31:52.051Z,16.38
2023-01-29T03:34:18.426Z,16.36
2023-01-29T03:36:44.769Z,16.91
2023-01-29T03:39:11.110Z,16.54
2023-01-29T03:41:37.445Z,16.29
2023-01-29T03:44:03.789Z,16.41
2023-01-29T03:46:30.140Z,15.81
2023-01-29T03:48:56.579Z,15.64
2023-01-29T03:51:22.984Z,15.99
2023-01-29T03:53:49.373Z,15.35
2023-01-29T03:56:15.725Z,15.49
2023-01-29T03:58:42.078Z,15.16
2023-01-29T04:01:08.465Z,15.52
2023-01-29T04:03:34.915Z,15.55
2023-01-29T04:06:01.275Z,15.85
2023-01-29T04:08:27.636Z,15.40
2023-01-29T04:10:54.019Z,14.96
2023-01-29T04:13:20.392Z,15.05
2023-01-29T04:15:46.752Z,15.10
2023-01-29T04:18:13.103Z,14.99
2023-01-29T04:20:39.446Z,15.13
2023-01-29T04:23:05.789Z,15.28
2023-01-29T04:25:32.198Z,15.82
2023-01-29T04:27:58.582Z,15.66
2023-01-29T04:30:24.950Z,15.56
2023-01-29T04:32:51.327Z,15.34
2023-01-29T04:35:17.683Z,15.22
2023-01-29T04:37:44.075Z,15.89
2023-01-29T04:40:10.467Z,15.58
2023-01-29T04:42:36.888Z,15.56
2023-01-29T04:45:03.233Z,16.21
2023-01-29T04:47:29.746Z,15.66
2023-01-29T04:49:56.101Z,15.79
2023-01-29T04:52:22.440Z,16.24
2023-01-29T04:54:48.829Z,15.92
2023-01-29T04:57:15.186Z,15.39
2023-01-29T04:59:41.530Z,15.73
2023-01-29T05:02:07.926Z,15.75
2023-01-29T05:04:34.350Z,15.62
2023-01-29T05:07:00.705Z,15.75
2023-01-29T05:09:27.103Z,15.30
2023-01-29T05:11:53.506Z,15.90
2023-01-29T05:14:19.898Z,15.33
2023-01-29T05:16:46.302Z,15.05
2023-01-29T05:19:14.269Z,15.82
2023-01-29T05:21:41.234Z,15.76
2023-01-29T05:24:07.692Z,15.89
2023-01-29T05:26:34.114Z,16.06
2023-01-29T05:29:00.504Z,16.28
2023-01-29T05:31:27.003Z,15.99
2023-01-29T05:33:53.455Z,15.94
2023-01-29T05:36:19.854Z,15.59
2023-01-29T05:38:46.209Z,15.84
2023-01-29T05:41:12.588Z,16.48
2023-01-29T05:43:38.990Z,15.99
2023-01-29T05:46:05.336Z,16.11
2023-01-29T05:48:31.704Z,15.82
2023-01-29T05:50:58.047Z,16.32
2023-01-29T05:53:24.440Z,15.64
2023-01-29T05:55:50.848Z,15.26
2023-01-29T05:58:17.212Z,15.98
2023-01-29T06:00:43.596Z,15.68
2023-01-29T06:03:10.064Z,15.93
2023-01-29T06:05:36.448Z,16.62
2023-01-29T06:08:02.826Z,16.28
2023-01-29T06:10:29.232Z,16.37
2023-01-29T06:12:55.621Z,15.96
2023-01-29T06:15:21.966Z,16.26
2023-01-29T06:17:48.357Z,16.12
2023-01-29T06:20:15.182Z,16.96
2023-01-29T06:22:41.827Z,16.39
2023-01-29T06:25:08.182Z,16.96
2023-01-29T06:27:34.579Z,17.12
2023-01-29T06:30:00.981Z,16.53
2023-01-29T06:32:27.471Z,16.70
2023-01-29T06:34:53.853Z,16.53
2023-01-29T06:37:20.206Z,16.52
2023-01-29T06:39:46.592Z,16.83
2023-01-29T06:42:12.951Z,16.68
2023-01-29T06:44:39.322Z,16.83
2023-01-29T06:47:05.717Z,16.37
2023-01-29T06:49:32.088Z,16.66
2023-01-29T06:51:58.474Z,16.82
2023-01-29T06:54:24.881Z,16.99
2023-01-29T06:56:51.234Z,17.05
2023-01-29T06:59:17.575Z,17.26
2023-01-29T07:01:44.139Z,16.95
2023-01-29T07:04:10.601Z,17.34
2023-01-29T07:06:36.995Z,17.04
2023-01-29T07:09:03.388Z,17.55
2023-01-29T07:11:29.784Z,18.05
2023-01-29T07:13:56.190Z,17.22
2023-01-29T07:16:22.574Z,17.09
2023-01-29T07:18:48.971Z,17.33
2023-01-29T07:21:15.392Z,17.32
2023-01-29T07:23:41.761Z,17.90
2023-01-29T07:26:08.133Z,17.54
2023-01-29T07:28:34.480Z,17.46
2023-01-29T07:31:00.890Z,17.43
2023-01-29T07:33:27.272Z,17.27
2023-01-29T07:35:53.622Z,17.38
2023-01-29T07:38:20.010Z,17.31
2023-01-29T07:40:46.360Z,17.24
2023-01-29T07:43:12.748Z,17.43
2023-01-29T07:45:39.160Z,17.18
2023-01-29T07:48:05.596Z,17.33
2023-01-29T07:50:31.995Z,17.32
2023-01-29T07:52:58.392Z,17.59
2023-01-29T07:55:24.783Z,17.49
2023-01-29T07:57:51.162Z,17.15
2023-01-29T08:00:17.775Z,17.48
2023-01-29T08:02:44.289Z,17.73
2023-01-29T08:05:10.648Z,17.53
2023-01-29T08:07:37.028Z,17.98
2023-01-29T08:10:03.404Z,17.54
2023-01-29T08:12:29.756Z,18.15
2023-01-29T08:14:56.099Z,17.66
2023-01-29T08:17:22.480Z,17.80
2023-01-29T08:19:48.872Z,17.54
2023-01-29T08:22:15.230Z,18.13
2023-01-29T08:24:53.571Z,18.75
2023-01-29T08:27:26.347Z,18.33
2023-01-29T08:29:52.757Z,18.81
2023-01-29T08:32:19.170Z,18.81
2023-01-29T08:34:45.521Z,18.08
2023-01-29T08:37:11.858Z,18.86
2023-01-29T08:39:38.211Z,27.36
2023-01-29T08:42:04.576Z,20.11
2023-01-29T08:44:30.982Z,18.65
2023-01-29T08:46:57.397Z,19.05
2023-01-29T08:49:23.769Z,18.71
2023-01-29T08:51:50.114Z,18.39
2023-01-29T08:54:16.538Z,18.28
2023-01-29T08:56:42.928Z,18.07
2023-01-29T08:59:09.298Z,19.52
2023-01-29T09:01:35.676Z,19.73
2023-01-29T09:04:02.032Z,18.39
2023-01-29T09:06:28.406Z,18.74
2023-01-29T09:08:54.781Z,18.57
2023-01-29T09:11:21.160Z,19.42
2023-01-29T09:13:47.512Z,19.72
2023-01-29T09:16:13.895Z,19.92
2023-01-29T09:18:40.284Z,19.68
2023-01-29T09:21:06.682Z,18.61
2023-01-29T09:23:33.032Z,18.97
2023-01-29T09:25:59.378Z,19.26
2023-01-29T09:28:25.726Z,18.90
2023-01-29T09:30:52.172Z,19.09
2023-01-29T09:33:18.606Z,19.43
2023-01-29T09:35:45.014Z,18.78
2023-01-29T09:38:11.404Z,19.34
2023-01-29T09:40:37.770Z,19.04
2023-01-29T09:43:04.168Z,19.83
2023-01-29T09:45:30.526Z,19.70
2023-01-29T09:47:56.893Z,18.75
2023-01-29T09:50:23.279Z,19.33
2023-01-29T09:53:01.974Z,18.66
2023-01-29T09:55:28.338Z,18.74
2023-01-29T09:57:54.734Z,18.57
2023-01-29T10:00:21.090Z,18.71
2023-01-29T10:02:47.430Z,18.88
2023-01-29T10:05:13.768Z,18.79
2023-01-29T10:07:40.152Z,18.78
2023-01-29T10:10:06.528Z,19.62
2023-01-29T10:12:32.913Z,19.13
2023-01-29T10:14:59.305Z,18.58
2023-01-29T10:17:25.796Z,18.70
2023-01-29T10:19:52.169Z,18.14
2023-01-29T10:22:18.512Z,18.55
2023-01-29T10:24:44.915Z,18.14
2023-01-29T10:27:11.322Z,18.82
2023-01-29T10:29:37.678Z,24.24
2023-01-29T10:32:04.102Z,23.90
2023-01-29T10:34:30.561Z,24.63
2023-01-29T10:36:56.919Z,27.12
2023-01-29T10:39:23.319Z,21.61
2023-01-29T10:41:49.703Z,20.19
2023-01-29T10:44:16.086Z,21.87
2023-01-29T10:46:42.478Z,19.69
2023-01-29T10:49:08.873Z,20.63
2023-01-29T10:51:35.270Z,21.27
2023-01-29T10:54:01.622Z,20.20
2023-01-29T10:56:28.013Z,19.41
2023-01-29T10:58:54.423Z,19.67
2023-01-29T11:01:20.811Z,19.75
2023-01-29T11:03:47.216Z,20.51
2023-01-29T11:06:13.609Z,19.50
2023-01-29T11:08:40.005Z,19.88
2023-01-29T11:11:06.352Z,22.07
2023-01-29T11:13:32.732Z,21.97
2023-01-29T11:15:59.094Z,21.29
2023-01-29T11:18:25.487Z,20.20
2023-01-29T11:20:51.881Z,18.96
2023-01-29T11:23:18.231Z,18.45
2023-01-29T11:25:44.627Z,19.01
2023-01-29T11:28:11.070Z,18.65
2023-01-29T11:30:37.576Z,18.92
2023-01-29T11:33:03.944Z,19.30
2023-01-29T11:35:30.332Z,19.07
2023-01-29T11:37:56.753Z,20.17
2023-01-29T11:40:23.103Z,19.85
2023-01-29T11:42:49.488Z,19.04
2023-01-29T11:45:15.837Z,22.10
2023-01-29T11:47:42.229Z,25.08
2023-01-29T11:50:08.625Z,28.43
2023-01-29T11:52:34.981Z,19.36
2023-01-29T11:55:01.375Z,19.71
2023-01-29T11:57:27.768Z,19.66
2023-01-29T11:59:54.181Z,19.43
2023-01-29T12:02:20.545Z,20.66
2023-01-29T12:04:46.942Z,24.83
2023-01-29T12:07:13.339Z,26.33
2023-01-29T12:09:39.702Z,27.46
2023-01-29T12:12:06.086Z,19.26
2023-01-29T12:14:32.466Z,18.90
2023-01-29T12:16:58.868Z,18.13
2023-01-29T12:19:25.219Z,18.49
2023-01-29T12:21:51.562Z,18.19
2023-01-29T12:24:17.917Z,19.62
2023-01-29T12:26:44.417Z,21.24
2023-01-29T12:29:10.849Z,20.88
2023-01-29T12:31:37.258Z,20.85
2023-01-29T12:34:03.672Z,19.73
2023-01-29T12:36:30.045Z,19.61
2023-01-29T12:38:56.438Z,19.86
2023-01-29T12:41:22.844Z,19.81
2023-01-29T12:43:49.234Z,26.25
2023-01-29T12:46:15.601Z,24.04
2023-01-29T12:48:41.952Z,20.16
2023-01-29T12:51:08.303Z,17.67
2023-01-29T12:53:34.652Z,17.37
2023-01-29T12:56:01.047Z,18.69
2023-01-29T12:58:27.432Z,18.36
2023-01-29T13:00:53.853Z,19.65
2023-01-29T13:03:20.335Z,19.50
2023-01-29T13:05:46.735Z,18.37
2023-01-29T13:08:13.129Z,18.75
2023-01-29T13:10:39.545Z,19.27
2023-01-29T13:13:05.942Z,19.95
2023-01-29T13:15:32.344Z,19.71
2023-01-29T13:17:58.712Z,19.14
2023-01-29T13:20:25.117Z,18.69
2023-01-29T13:22:51.479Z,18.92
2023-01-29T13:25:17.859Z,18.71
2023-01-29T13:27:44.224Z,19.21
2023-01-29T13:30:10.568Z,19.18
2023-01-29T13:32:36.947Z,19.35
2023-01-29T13:35:03.301Z,18.73
2023-01-29T13:37:29.658Z,19.41
2023-01-29T13:39:56.000Z,19.02
2023-01-29T13:42:22.346Z,19.33
2023-01-29T13:44:48.745Z,19.25
2023-01-29T13:47:15.144Z,20.11
2023-01-29T13:49:41.547Z,19.19
2023-01-29T13:52:07.992Z,19.28
2023-01-29T13:54:34.394Z,18.73
2023-01-29T13:57:00.784Z,18.91
2023-01-29T13:59:27.185Z,19.10
2023-01-29T14:01:53.539Z,19.46
2023-01-29T14:04:19.932Z,19.29
2023-01-29T14:06:46.307Z,18.11
2023-01-29T14:09:12.684Z,18.54
2023-01-29T14:11:39.033Z,18.53
2023-01-29T14:14:05.418Z,19.06
2023-01-29T14:16:31.824Z,18.48
2023-01-29T14:18:58.173Z,19.83
2023-01-29T14:21:24.543Z,17.18
2023-01-29T14:23:50.924Z,17.07
2023-01-29T14:26:17.422Z,17.90
2023-01-29T14:28:43.810Z,16.85
2023-01-29T14:31:10.226Z,17.34
2023-01-29T14:33:36.622Z,17.90
2023-01-29T14:36:03.011Z,18.21
2023-01-29T14:38:29.445Z,17.72
2023-01-29T14:40:55.851Z,18.74
2023-01-29T14:43:22.209Z,17.84
2023-01-29T14:45:48.676Z,16.28
2023-01-29T14:48:15.110Z,16.94
2023-01-29T14:50:41.497Z,16.95
2023-01-29T14:53:07.866Z,19.30
2023-01-29T14:55:34.288Z,19.47
2023-01-29T14:58:00.655Z,17.56
2023-01-29T15:00:27.006Z,22.14
2023-01-29T15:03:01.368Z,21.44
2023-01-29T15:05:28.467Z,51.04
2023-01-29T15:07:54.848Z,37.58
2023-01-29T15:10:23.095Z,23.54
2023-01-29T15:12:49.838Z,22.54
2023-01-29T15:15:16.565Z,19.92
2023-01-29T15:17:43.047Z,35.12
2023-01-29T15:20:09.399Z,26.86
2023-01-29T15:22:35.746Z,39.56
2023-01-29T15:25:02.157Z,77.34
2023-01-29T15:27:28.524Z,33.58
2023-01-29T15:29:54.909Z,19.87
2023-01-29T15:32:21.272Z,17.58
2023-01-29T15:34:47.664Z,17.88
2023-01-29T15:37:14.108Z,21.96
2023-01-29T15:39:40.513Z,24.78
2023-01-29T15:42:06.981Z,18.35
2023-01-29T15:44:33.344Z,18.74
2023-01-29T15:46:59.760Z,20.77
2023-01-29T15:49:26.192Z,23.81
2023-01-29T15:51:52.551Z,30.52
2023-01-29T15:54:18.897Z,22.86
2023-01-29T15:56:45.288Z,22.30
2023-01-29T15:59:11.678Z,21.46
2023-01-29T16:01:38.108Z,17.44
2023-01-29T16:04:04.541Z,20.10
2023-01-29T16:06:30.978Z,24.10
2023-01-29T16:08:57.353Z,21.86
2023-01-29T16:11:23.715Z,21.47
2023-01-29T16:13:50.110Z,23.99
2023-01-29T16:16:16.771Z,18.17
2023-01-29T16:18:57.884Z,17.65
2023-01-29T16:21:25.499Z,21.86
2023-01-29T16:23:51.852Z,27.86
2023-01-29T16:26:18.222Z,24.06
2023-01-29T16:28:44.572Z,19.86
2023-01-29T16:31:11.092Z,18.23
2023-01-29T16:33:37.629Z,17.62
2023-01-29T16:36:03.989Z,16.95
2023-01-29T16:38:30.738Z,16.72
2023-01-29T16:40:57.128Z,16.96
2023-01-29T16:43:26.202Z,16.91
2023-01-29T16:45:54.671Z,16.87
2023-01-29T16:48:21.138Z,16.41
2023-01-29T16:50:54.975Z,16.39
2023-01-29T16:53:21.861Z,16.59
2023-01-29T16:55:48.351Z,17.31
2023-01-29T16:58:14.919Z,17.43
2023-01-29T17:00:41.403Z,17.01
2023-01-29T17:03:07.765Z,17.38
2023-01-29T17:05:34.175Z,16.86
2023-01-29T17:08:00.631Z,16.78
2023-01-29T17:10:27.003Z,16.77
2023-01-29T17:12:53.397Z,17.34
2023-01-29T17:15:20.143Z,16.86
2023-01-29T17:17:46.616Z,16.48
2023-01-29T17:20:13.171Z,16.09
2023-01-29T17:22:39.795Z,15.83
2023-01-29T17:25:06.350Z,16.37
2023-01-29T17:27:33.208Z,16.81
2023-01-29T17:29:59.641Z,17.55
2023-01-29T17:32:26.123Z,17.60
2023-01-29T17:35:10.847Z,18.53
2023-01-29T17:37:37.492Z,20.25
2023-01-29T17:40:05.408Z,21.09
2023-01-29T17:42:32.010Z,21.12
2023-01-29T17:44:58.529Z,19.59
2023-01-29T17:47:25.040Z,19.12
2023-01-29T17:49:51.443Z,20.03
2023-01-29T17:52:17.789Z,20.50
2023-01-29T17:54:44.297Z,21.72
2023-01-29T17:57:10.833Z,21.79
2023-01-29T17:59:37.509Z,21.35
2023-01-29T18:02:04.217Z,20.56
2023-01-29T18:04:30.664Z,18.38
2023-01-29T18:06:57.099Z,18.21
2023-01-29T18:09:23.476Z,18.80
2023-01-29T18:11:49.813Z,19.49
2023-01-29T18:14:16.160Z,19.93
2023-01-29T18:16:42.538Z,22.26
2023-01-29T18:19:08.947Z,22.63
2023-01-29T18:21:35.331Z,24.17
2023-01-29T18:24:01.724Z,28.75
2023-01-29T18:26:28.142Z,48.54
2023-01-29T18:28:54.599Z,38.94
2023-01-29T18:31:21.012Z,33.53
2023-01-29T18:33:47.438Z,33.28
2023-01-29T18:36:13.852Z,34.61
2023-01-29T18:38:40.275Z,32.17
2023-01-29T18:41:06.669Z,31.58
2023-01-29T18:43:33.065Z,30.21
2023-01-29T18:45:59.455Z,30.96
2023-01-29T18:48:25.823Z,29.33
2023-01-29T18:50:52.170Z,29.49
2023-01-29T18:53:18.534Z,28.89
2023-01-29T18:55:44.920Z,24.86
2023-01-29T18:58:27.203Z,23.74
2023-01-29T19:00:57.709Z,23.61
2023-01-29T19:03:24.104Z,24.16
2023-01-29T19:05:50.499Z,24.14
2023-01-29T19:08:16.863Z,24.92
2023-01-29T19:10:43.198Z,23.84
2023-01-29T19:13:09.585Z,23.14
2023-01-29T19:15:35.937Z,22.99
2023-01-29T19:18:02.285Z,22.92
2023-01-29T19:20:28.684Z,22.79
2023-01-29T19:22:55.042Z,22.83
2023-01-29T19:25:21.578Z,22.53
2023-01-29T19:27:48.158Z,22.36
2023-01-29T19:30:14.589Z,24.97
2023-01-29T19:32:40.983Z,33.43
2023-01-29T19:35:07.389Z,28.49
2023-01-29T19:37:33.749Z,26.47
2023-01-29T19:40:00.119Z,23.81
2023-01-29T19:42:26.508Z,22.61
2023-01-29T19:44:52.912Z,21.75
2023-01-29T19:47:19.372Z,21.57
2023-01-29T19:49:45.922Z,22.47
2023-01-29T19:52:12.333Z,20.86
2023-01-29T19:54:38.733Z,21.04
2023-01-29T19:57:05.200Z,21.36
2023-01-29T19:59:31.590Z,20.81
2023-01-29T20:01:58.020Z,20.59
2023-01-29T20:04:24.425Z,21.37
2023-01-29T20:06:50.820Z,21.25
2023-01-29T20:09:17.230Z,21.82
2023-01-29T20:11:43.615Z,21.93
2023-01-29T20:14:09.969Z,22.54
2023-01-29T20:16:36.333Z,21.22
2023-01-29T20:19:14.544Z,20.94
2023-01-29T20:21:41.419Z,20.93
2023-01-29T20:24:08.268Z,21.03
2023-01-29T20:26:34.836Z,20.90
2023-01-29T20:29:01.277Z,21.05
2023-01-29T20:31:27.681Z,21.93
2023-01-29T20:33:54.061Z,21.71
2023-01-29T20:36:20.454Z,25.00
2023-01-29T20:38:46.824Z,28.20
2023-01-29T20:41:13.225Z,27.20
2023-01-29T20:43:39.634Z,24.60
2023-01-29T20:46:06.053Z,20.09
2023-01-29T20:48:32.460Z,19.25
2023-01-29T20:50:58.841Z,19.47
2023-01-29T20:53:25.231Z,20.22
2023-01-29T20:55:51.747Z,20.83
2023-01-29T20:58:18.237Z,20.26
2023-01-29T21:00:44.609Z,19.35
2023-01-29T21:03:11.048Z,19.43
2023-01-29T21:05:37.415Z,20.88
2023-01-29T21:08:03.779Z,21.90
2023-01-29T21:10:30.127Z,22.57
2023-01-29T21:12:56.496Z,24.46
2023-01-29T21:15:22.835Z,27.02
2023-01-29T21:17:49.198Z,29.96
2023-01-29T21:20:15.782Z,27.15
2023-01-29T21:22:42.297Z,24.49
2023-01-29T21:25:08.676Z,28.29
2023-01-29T21:27:35.038Z,31.71
2023-01-29T21:30:01.452Z,39.53
2023-01-29T21:32:27.815Z,32.10
2023-01-29T21:34:54.219Z,30.01
2023-01-29T21:37:20.574Z,28.48
2023-01-29T21:39:46.926Z,26.62
2023-01-29T21:42:13.317Z,22.72
2023-01-29T21:44:39.671Z,26.31
2023-01-29T21:47:06.013Z,25.24
2023-01-29T21:49:32.395Z,24.89
2023-01-29T21:51:58.755Z,43.44
2023-01-29T21:54:25.104Z,44.19
2023-01-29T21:56:51.451Z,48.89
2023-01-29T21:59:17.833Z,38.33
2023-01-29T22:01:44.248Z,23.98
2023-01-29T22:04:10.613Z,25.64
2023-01-29T22:06:36.973Z,25.68
2023-01-29T22:09:03.319Z,25.19
2023-01-29T22:11:29.798Z,23.77
2023-01-29T22:13:56.185Z,23.79
2023-01-29T22:16:22.583Z,22.67
2023-01-29T22:18:48.944Z,22.35
2023-01-29T22:21:15.301Z,23.15
2023-01-29T22:23:41.677Z,28.68
2023-01-29T22:26:08.073Z,30.07
2023-01-29T22:28:34.461Z,26.37
2023-01-29T22:31:00.800Z,29.93
2023-01-29T22:33:27.203Z,27.61
2023-01-29T22:35:53.603Z,38.64
2023-01-29T22:38:19.970Z,31.91
2023-01-29T22:40:46.365Z,29.89
2023-01-29T22:43:12.772Z,22.80
2023-01-29T22:45:39.164Z,21.90
2023-01-29T22:48:07.183Z,22.00
2023-01-29T22:50:34.499Z,20.28
2023-01-29T22:53:00.881Z,21.35
2023-01-29T22:55:27.283Z,20.15
2023-01-29T22:57:53.696Z,19.20
2023-01-29T23:00:20.339Z,18.83
2023-01-29T23:02:46.790Z,20.00
2023-01-29T23:05:13.130Z,19.77
2023-01-29T23:07:39.528Z,20.08
2023-01-29T23:10:06.995Z,20.86
2023-01-29T23:12:33.503Z,19.35
2023-01-29T23:14:59.899Z,18.64
2023-01-29T23:17:26.254Z,18.60
2023-01-29T23:19:52.643Z,18.75
2023-01-29T23:22:19.037Z,18.73
2023-01-29T23:24:45.394Z,19.22
2023-01-29T23:27:11.781Z,18.56
2023-01-29T23:29:38.133Z,18.32
2023-01-29T23:32:04.525Z,18.45
2023-01-29T23:34:30.923Z,19.09
2023-01-29T23:36:57.308Z,18.76
2023-01-29T23:39:23.703Z,18.58
2023-01-29T23:41:50.066Z,19.01
2023-01-29T23:44:16.434Z,18.43
2023-01-29T23:46:42.838Z,17.71
2023-01-29T23:49:09.208Z,18.22
2023-01-29T23:51:35.603Z,18.93
2023-01-29T23:54:01.966Z,18.01
2023-01-29T23:56:28.315Z,18.06
2023-01-29T23:58:54.663Z,18.35
